sensor_id;sensor_type;location;lat;lon;timestamp;P1;durP1;ratioP1;P2;durP2;ratioP2
65896;SDS011;52677;50.898;10.854;2022-10-26T00:01:38;7.07;;;5.28;;
65896;SDS011;52677;50.898;10.854;2022-10-26T00:03:39;8.95;;;5.35;;
65896;SDS011;52677;50.898;10.854;2022-10-26T00:05:40;6.53;;;4.53;;
65896;SDS011;52677;50.898;10.854;2022-10-26T00:07:41;7.53;;;4.85;;
65896;SDS011;52677;50.898;10.854;2022-10-26T00:09:41;9.43;;;4.70;;
65896;SDS011;52677;50.898;10.854;2022-10-26T00:11:41;8.60;;;4.57;;
65896;SDS011;52677;50.898;10.854;2022-10-26T00:13:42;7.93;;;4.15;;
65896;SDS011;52677;50.898;10.854;2022-10-26T00:15:43;6.82;;;4.55;;
65896;SDS011;52677;50.898;10.854;2022-10-26T00:17:44;8.73;;;4.65;;
65896;SDS011;52677;50.898;10.854;2022-10-26T00:19:45;10.50;;;4.78;;
65896;SDS011;52677;50.898;10.854;2022-10-26T00:21:45;10.07;;;4.75;;
65896;SDS011;52677;50.898;10.854;2022-10-26T00:23:46;6.78;;;4.38;;
65896;SDS011;52677;50.898;10.854;2022-10-26T00:25:52;6.60;;;4.65;;
65896;SDS011;52677;50.898;10.854;2022-10-26T00:27:53;6.85;;;4.72;;
65896;SDS011;52677;50.898;10.854;2022-10-26T00:29:54;5.28;;;4.13;;
65896;SDS011;52677;50.898;10.854;2022-10-26T00:31:54;5.80;;;4.13;;
65896;SDS011;52677;50.898;10.854;2022-10-26T00:33:55;6.40;;;4.32;;
65896;SDS011;52677;50.898;10.854;2022-10-26T00:35:56;7.95;;;4.40;;
65896;SDS011;52677;50.898;10.854;2022-10-26T00:37:56;7.88;;;4.25;;
65896;SDS011;52677;50.898;10.854;2022-10-26T00:39:56;5.00;;;3.88;;
65896;SDS011;52677;50.898;10.854;2022-10-26T00:41:57;7.25;;;4.35;;
65896;SDS011;52677;50.898;10.854;2022-10-26T00:43:57;7.75;;;4.38;;
65896;SDS011;52677;50.898;10.854;2022-10-26T00:45:58;9.65;;;4.88;;
65896;SDS011;52677;50.898;10.854;2022-10-26T00:50:09;4.20;;;3.53;;
65896;SDS011;52677;50.898;10.854;2022-10-26T00:52:14;5.15;;;3.70;;
65896;SDS011;52677;50.898;10.854;2022-10-26T00:54:17;5.72;;;3.65;;
65896;SDS011;52677;50.898;10.854;2022-10-26T00:56:19;8.57;;;5.40;;
65896;SDS011;52677;50.898;10.854;2022-10-26T00:58:20;9.82;;;3.85;;
65896;SDS011;52677;50.898;10.854;2022-10-26T01:00:22;7.38;;;4.13;;
65896;SDS011;52677;50.898;10.854;2022-10-26T01:02:22;6.97;;;4.43;;
65896;SDS011;52677;50.898;10.854;2022-10-26T01:04:23;8.23;;;4.18;;
65896;SDS011;52677;50.898;10.854;2022-10-26T01:06:23;8.52;;;4.50;;
65896;SDS011;52677;50.898;10.854;2022-10-26T01:08:24;6.32;;;4.22;;
65896;SDS011;52677;50.898;10.854;2022-10-26T01:10:27;5.75;;;4.00;;
65896;SDS011;52677;50.898;10.854;2022-10-26T01:12:28;5.72;;;4.45;;
65896;SDS011;52677;50.898;10.854;2022-10-26T01:14:28;12.85;;;4.72;;
65896;SDS011;52677;50.898;10.854;2022-10-26T01:16:33;6.68;;;4.25;;
65896;SDS011;52677;50.898;10.854;2022-10-26T01:21:12;6.95;;;4.28;;
65896;SDS011;52677;50.898;10.854;2022-10-26T01:23:35;7.78;;;4.28;;
65896;SDS011;52677;50.898;10.854;2022-10-26T01:28:05;7.15;;;4.40;;
65896;SDS011;52677;50.898;10.854;2022-10-26T01:30:39;6.80;;;4.30;;
65896;SDS011;52677;50.898;10.854;2022-10-26T01:34:48;8.40;;;4.07;;
65896;SDS011;52677;50.898;10.854;2022-10-26T01:36:59;6.47;;;3.80;;
65896;SDS011;52677;50.898;10.854;2022-10-26T01:39:14;5.75;;;3.85;;
65896;SDS011;52677;50.898;10.854;2022-10-26T01:41:23;5.82;;;3.83;;
65896;SDS011;52677;50.898;10.854;2022-10-26T01:43:29;7.53;;;3.65;;
65896;SDS011;52677;50.898;10.854;2022-10-26T01:45:34;5.65;;;3.75;;
65896;SDS011;52677;50.898;10.854;2022-10-26T01:47:39;6.43;;;4.35;;
65896;SDS011;52677;50.898;10.854;2022-10-26T01:49:47;9.35;;;4.13;;
65896;SDS011;52677;50.898;10.854;2022-10-26T01:51:50;6.88;;;3.55;;
65896;SDS011;52677;50.898;10.854;2022-10-26T01:53:50;10.13;;;4.15;;
65896;SDS011;52677;50.898;10.854;2022-10-26T01:55:51;7.65;;;4.40;;
65896;SDS011;52677;50.898;10.854;2022-10-26T01:57:53;6.60;;;3.65;;
65896;SDS011;52677;50.898;10.854;2022-10-26T02:00:05;6.30;;;3.58;;
65896;SDS011;52677;50.898;10.854;2022-10-26T02:09:19;8.57;;;4.32;;
65896;SDS011;52677;50.898;10.854;2022-10-26T02:11:31;9.73;;;4.35;;
65896;SDS011;52677;50.898;10.854;2022-10-26T02:16:15;11.52;;;5.22;;
65896;SDS011;52677;50.898;10.854;2022-10-26T02:20:31;5.97;;;4.20;;
65896;SDS011;52677;50.898;10.854;2022-10-26T02:22:35;9.98;;;4.72;;
65896;SDS011;52677;50.898;10.854;2022-10-26T02:24:38;7.30;;;4.22;;
65896;SDS011;52677;50.898;10.854;2022-10-26T02:26:40;6.88;;;4.50;;
65896;SDS011;52677;50.898;10.854;2022-10-26T02:28:45;6.80;;;3.80;;
65896;SDS011;52677;50.898;10.854;2022-10-26T02:30:49;7.65;;;4.57;;
65896;SDS011;52677;50.898;10.854;2022-10-26T02:32:53;8.20;;;4.68;;
65896;SDS011;52677;50.898;10.854;2022-10-26T02:34:56;9.10;;;4.28;;
65896;SDS011;52677;50.898;10.854;2022-10-26T02:37:00;7.25;;;3.88;;
65896;SDS011;52677;50.898;10.854;2022-10-26T02:39:02;5.65;;;3.67;;
65896;SDS011;52677;50.898;10.854;2022-10-26T02:41:06;10.07;;;4.00;;
65896;SDS011;52677;50.898;10.854;2022-10-26T02:43:09;7.60;;;4.18;;
65896;SDS011;52677;50.898;10.854;2022-10-26T02:45:15;5.60;;;3.67;;
65896;SDS011;52677;50.898;10.854;2022-10-26T02:47:18;6.90;;;3.97;;
65896;SDS011;52677;50.898;10.854;2022-10-26T02:49:19;4.80;;;3.43;;
65896;SDS011;52677;50.898;10.854;2022-10-26T02:55:33;5.43;;;3.90;;
65896;SDS011;52677;50.898;10.854;2022-10-26T02:57:40;6.65;;;4.30;;
65896;SDS011;52677;50.898;10.854;2022-10-26T02:59:44;5.72;;;3.63;;
65896;SDS011;52677;50.898;10.854;2022-10-26T03:01:46;5.25;;;3.95;;
65896;SDS011;52677;50.898;10.854;2022-10-26T03:03:48;5.78;;;3.92;;
65896;SDS011;52677;50.898;10.854;2022-10-26T03:05:49;8.73;;;4.28;;
65896;SDS011;52677;50.898;10.854;2022-10-26T03:07:50;8.50;;;4.30;;
65896;SDS011;52677;50.898;10.854;2022-10-26T03:09:51;7.60;;;4.30;;
65896;SDS011;52677;50.898;10.854;2022-10-26T03:11:51;5.72;;;4.15;;
65896;SDS011;52677;50.898;10.854;2022-10-26T03:13:52;8.30;;;4.60;;
65896;SDS011;52677;50.898;10.854;2022-10-26T03:15:55;8.38;;;4.22;;
65896;SDS011;52677;50.898;10.854;2022-10-26T03:17:56;9.80;;;4.47;;
65896;SDS011;52677;50.898;10.854;2022-10-26T03:19:56;6.32;;;3.83;;
65896;SDS011;52677;50.898;10.854;2022-10-26T03:21:57;7.35;;;4.05;;
65896;SDS011;52677;50.898;10.854;2022-10-26T03:23:57;5.72;;;3.72;;
65896;SDS011;52677;50.898;10.854;2022-10-26T03:25:58;8.32;;;3.78;;
65896;SDS011;52677;50.898;10.854;2022-10-26T03:28:02;5.18;;;3.45;;
65896;SDS011;52677;50.898;10.854;2022-10-26T03:30:03;7.47;;;4.10;;
65896;SDS011;52677;50.898;10.854;2022-10-26T03:32:04;5.63;;;3.30;;
65896;SDS011;52677;50.898;10.854;2022-10-26T03:34:05;6.63;;;4.22;;
65896;SDS011;52677;50.898;10.854;2022-10-26T03:36:05;6.20;;;4.28;;
65896;SDS011;52677;50.898;10.854;2022-10-26T03:38:06;7.38;;;4.28;;
65896;SDS011;52677;50.898;10.854;2022-10-26T03:40:06;5.70;;;3.60;;
65896;SDS011;52677;50.898;10.854;2022-10-26T03:42:07;7.18;;;3.70;;
65896;SDS011;52677;50.898;10.854;2022-10-26T03:44:08;6.63;;;3.70;;
65896;SDS011;52677;50.898;10.854;2022-10-26T03:46:08;4.90;;;3.33;;
65896;SDS011;52677;50.898;10.854;2022-10-26T03:48:08;7.22;;;3.65;;
65896;SDS011;52677;50.898;10.854;2022-10-26T03:50:09;7.55;;;3.78;;
65896;SDS011;52677;50.898;10.854;2022-10-26T03:52:10;6.55;;;4.00;;
65896;SDS011;52677;50.898;10.854;2022-10-26T03:54:10;5.75;;;3.55;;
65896;SDS011;52677;50.898;10.854;2022-10-26T03:56:10;4.25;;;3.50;;
65896;SDS011;52677;50.898;10.854;2022-10-26T03:58:11;7.20;;;3.70;;
65896;SDS011;52677;50.898;10.854;2022-10-26T04:00:12;6.95;;;3.72;;
65896;SDS011;52677;50.898;10.854;2022-10-26T04:02:16;6.93;;;3.33;;
65896;SDS011;52677;50.898;10.854;2022-10-26T04:04:16;5.13;;;3.55;;
65896;SDS011;52677;50.898;10.854;2022-10-26T04:06:17;5.97;;;3.70;;
65896;SDS011;52677;50.898;10.854;2022-10-26T04:08:17;7.18;;;3.67;;
65896;SDS011;52677;50.898;10.854;2022-10-26T04:10:18;6.15;;;3.70;;
65896;SDS011;52677;50.898;10.854;2022-10-26T04:12:18;7.05;;;4.22;;
65896;SDS011;52677;50.898;10.854;2022-10-26T04:14:18;6.50;;;3.72;;
65896;SDS011;52677;50.898;10.854;2022-10-26T04:16:18;6.28;;;3.75;;
65896;SDS011;52677;50.898;10.854;2022-10-26T04:18:19;7.75;;;4.10;;
65896;SDS011;52677;50.898;10.854;2022-10-26T04:20:19;4.93;;;3.70;;
65896;SDS011;52677;50.898;10.854;2022-10-26T04:22:19;6.35;;;3.97;;
65896;SDS011;52677;50.898;10.854;2022-10-26T04:24:19;6.90;;;3.47;;
65896;SDS011;52677;50.898;10.854;2022-10-26T04:26:20;7.22;;;3.78;;
65896;SDS011;52677;50.898;10.854;2022-10-26T04:28:20;7.63;;;4.38;;
65896;SDS011;52677;50.898;10.854;2022-10-26T04:30:20;5.82;;;4.03;;
65896;SDS011;52677;50.898;10.854;2022-10-26T04:32:21;9.73;;;6.00;;
65896;SDS011;52677;50.898;10.854;2022-10-26T04:34:21;7.15;;;4.53;;
65896;SDS011;52677;50.898;10.854;2022-10-26T04:36:22;9.02;;;5.47;;
65896;SDS011;52677;50.898;10.854;2022-10-26T04:38:22;10.80;;;6.00;;
65896;SDS011;52677;50.898;10.854;2022-10-26T04:40:22;7.88;;;5.18;;
65896;SDS011;52677;50.898;10.854;2022-10-26T04:42:22;7.70;;;4.72;;
65896;SDS011;52677;50.898;10.854;2022-10-26T04:44:23;7.80;;;5.20;;
65896;SDS011;52677;50.898;10.854;2022-10-26T04:46:23;7.18;;;5.43;;
65896;SDS011;52677;50.898;10.854;2022-10-26T04:48:23;9.10;;;4.82;;
65896;SDS011;52677;50.898;10.854;2022-10-26T04:50:24;7.45;;;5.30;;
65896;SDS011;52677;50.898;10.854;2022-10-26T04:52:24;9.52;;;5.85;;
65896;SDS011;52677;50.898;10.854;2022-10-26T04:54:24;8.75;;;5.20;;
65896;SDS011;52677;50.898;10.854;2022-10-26T04:56:25;7.53;;;5.22;;
65896;SDS011;52677;50.898;10.854;2022-10-26T04:58:25;8.50;;;5.65;;
65896;SDS011;52677;50.898;10.854;2022-10-26T05:00:26;8.38;;;5.20;;
65896;SDS011;52677;50.898;10.854;2022-10-26T05:02:29;8.02;;;4.40;;
65896;SDS011;52677;50.898;10.854;2022-10-26T05:04:29;10.25;;;5.13;;
65896;SDS011;52677;50.898;10.854;2022-10-26T05:06:29;6.45;;;4.38;;
65896;SDS011;52677;50.898;10.854;2022-10-26T05:08:29;7.72;;;5.38;;
65896;SDS011;52677;50.898;10.854;2022-10-26T05:10:30;8.75;;;5.18;;
65896;SDS011;52677;50.898;10.854;2022-10-26T05:12:30;11.13;;;6.57;;
65896;SDS011;52677;50.898;10.854;2022-10-26T05:16:33;8.53;;;5.70;;
65896;SDS011;52677;50.898;10.854;2022-10-26T05:18:33;9.25;;;5.45;;
65896;SDS011;52677;50.898;10.854;2022-10-26T05:20:34;8.30;;;5.10;;
65896;SDS011;52677;50.898;10.854;2022-10-26T05:22:35;7.43;;;4.65;;
65896;SDS011;52677;50.898;10.854;2022-10-26T05:24:35;10.50;;;4.85;;
65896;SDS011;52677;50.898;10.854;2022-10-26T05:26:36;6.88;;;4.47;;
65896;SDS011;52677;50.898;10.854;2022-10-26T05:28:36;8.23;;;4.53;;
65896;SDS011;52677;50.898;10.854;2022-10-26T05:30:36;8.13;;;4.53;;
65896;SDS011;52677;50.898;10.854;2022-10-26T05:32:36;9.63;;;4.88;;
65896;SDS011;52677;50.898;10.854;2022-10-26T05:34:37;7.15;;;4.30;;
65896;SDS011;52677;50.898;10.854;2022-10-26T05:36:37;7.90;;;4.50;;
65896;SDS011;52677;50.898;10.854;2022-10-26T05:38:37;7.50;;;4.25;;
65896;SDS011;52677;50.898;10.854;2022-10-26T05:40:37;6.32;;;4.15;;
65896;SDS011;52677;50.898;10.854;2022-10-26T05:42:45;7.85;;;4.57;;
65896;SDS011;52677;50.898;10.854;2022-10-26T05:44:45;13.85;;;5.75;;
65896;SDS011;52677;50.898;10.854;2022-10-26T05:46:45;11.20;;;5.15;;
65896;SDS011;52677;50.898;10.854;2022-10-26T05:48:46;12.52;;;5.20;;
65896;SDS011;52677;50.898;10.854;2022-10-26T05:50:46;9.57;;;5.40;;
65896;SDS011;52677;50.898;10.854;2022-10-26T05:52:47;8.85;;;5.45;;
65896;SDS011;52677;50.898;10.854;2022-10-26T05:54:48;12.00;;;5.22;;
65896;SDS011;52677;50.898;10.854;2022-10-26T05:56:49;10.70;;;5.60;;
65896;SDS011;52677;50.898;10.854;2022-10-26T05:58:49;14.13;;;5.78;;
65896;SDS011;52677;50.898;10.854;2022-10-26T06:01:00;10.18;;;6.30;;
65896;SDS011;52677;50.898;10.854;2022-10-26T06:03:07;14.25;;;6.00;;
65896;SDS011;52677;50.898;10.854;2022-10-26T06:05:17;9.55;;;5.65;;
65896;SDS011;52677;50.898;10.854;2022-10-26T06:07:21;10.02;;;5.93;;
65896;SDS011;52677;50.898;10.854;2022-10-26T06:09:22;13.43;;;6.03;;
65896;SDS011;52677;50.898;10.854;2022-10-26T06:11:22;11.85;;;6.05;;
65896;SDS011;52677;50.898;10.854;2022-10-26T06:13:23;8.95;;;6.10;;
65896;SDS011;52677;50.898;10.854;2022-10-26T06:15:23;8.80;;;5.85;;
65896;SDS011;52677;50.898;10.854;2022-10-26T06:17:30;11.70;;;6.55;;
65896;SDS011;52677;50.898;10.854;2022-10-26T06:19:54;10.05;;;6.30;;
65896;SDS011;52677;50.898;10.854;2022-10-26T06:24:43;10.13;;;5.85;;
65896;SDS011;52677;50.898;10.854;2022-10-26T06:29:47;12.45;;;6.13;;
65896;SDS011;52677;50.898;10.854;2022-10-26T06:32:00;14.35;;;6.55;;
65896;SDS011;52677;50.898;10.854;2022-10-26T06:34:01;14.05;;;6.43;;
65896;SDS011;52677;50.898;10.854;2022-10-26T06:38:07;9.75;;;6.68;;
65896;SDS011;52677;50.898;10.854;2022-10-26T06:40:11;11.73;;;6.60;;
65896;SDS011;52677;50.898;10.854;2022-10-26T06:42:14;14.93;;;6.90;;
65896;SDS011;52677;50.898;10.854;2022-10-26T06:44:20;9.75;;;5.53;;
65896;SDS011;52677;50.898;10.854;2022-10-26T06:46:29;8.63;;;5.82;;
65896;SDS011;52677;50.898;10.854;2022-10-26T06:48:46;9.13;;;5.18;;
65896;SDS011;52677;50.898;10.854;2022-10-26T06:50:52;8.25;;;5.40;;
65896;SDS011;52677;50.898;10.854;2022-10-26T06:55:20;8.80;;;5.18;;
65896;SDS011;52677;50.898;10.854;2022-10-26T06:57:23;7.18;;;4.82;;
65896;SDS011;52677;50.898;10.854;2022-10-26T07:01:27;13.95;;;4.60;;
65896;SDS011;52677;50.898;10.854;2022-10-26T07:03:27;9.10;;;5.13;;
65896;SDS011;52677;50.898;10.854;2022-10-26T07:05:27;7.43;;;4.68;;
65896;SDS011;52677;50.898;10.854;2022-10-26T07:07:28;8.20;;;4.00;;
65896;SDS011;52677;50.898;10.854;2022-10-26T07:09:29;7.60;;;3.88;;
65896;SDS011;52677;50.898;10.854;2022-10-26T07:11:30;5.90;;;3.97;;
65896;SDS011;52677;50.898;10.854;2022-10-26T07:13:30;7.93;;;3.90;;
65896;SDS011;52677;50.898;10.854;2022-10-26T07:15:31;9.65;;;3.78;;
65896;SDS011;52677;50.898;10.854;2022-10-26T07:17:40;7.00;;;3.50;;
65896;SDS011;52677;50.898;10.854;2022-10-26T07:19:42;9.82;;;3.58;;
65896;SDS011;52677;50.898;10.854;2022-10-26T07:21:43;7.30;;;3.50;;
65896;SDS011;52677;50.898;10.854;2022-10-26T07:23:43;6.03;;;3.63;;
65896;SDS011;52677;50.898;10.854;2022-10-26T07:25:44;6.90;;;3.70;;
65896;SDS011;52677;50.898;10.854;2022-10-26T07:27:44;11.57;;;3.97;;
65896;SDS011;52677;50.898;10.854;2022-10-26T07:29:44;6.78;;;3.92;;
65896;SDS011;52677;50.898;10.854;2022-10-26T07:31:45;10.88;;;5.82;;
65896;SDS011;52677;50.898;10.854;2022-10-26T07:33:45;10.20;;;5.30;;
65896;SDS011;52677;50.898;10.854;2022-10-26T07:35:45;8.00;;;4.90;;
65896;SDS011;52677;50.898;10.854;2022-10-26T07:37:45;8.80;;;5.60;;
65896;SDS011;52677;50.898;10.854;2022-10-26T07:39:46;8.75;;;5.05;;
65896;SDS011;52677;50.898;10.854;2022-10-26T07:41:46;9.38;;;5.43;;
65896;SDS011;52677;50.898;10.854;2022-10-26T07:43:46;13.45;;;6.32;;
65896;SDS011;52677;50.898;10.854;2022-10-26T07:45:49;9.18;;;5.50;;
65896;SDS011;52677;50.898;10.854;2022-10-26T07:47:50;7.47;;;5.15;;
65896;SDS011;52677;50.898;10.854;2022-10-26T07:49:50;11.30;;;5.47;;
65896;SDS011;52677;50.898;10.854;2022-10-26T07:51:51;10.77;;;5.80;;
65896;SDS011;52677;50.898;10.854;2022-10-26T07:53:51;10.50;;;6.15;;
65896;SDS011;52677;50.898;10.854;2022-10-26T07:55:52;11.43;;;5.30;;
65896;SDS011;52677;50.898;10.854;2022-10-26T07:57:56;8.95;;;5.85;;
65896;SDS011;52677;50.898;10.854;2022-10-26T07:59:56;12.43;;;6.00;;
65896;SDS011;52677;50.898;10.854;2022-10-26T08:01:57;11.88;;;5.35;;
65896;SDS011;52677;50.898;10.854;2022-10-26T08:03:57;9.73;;;5.55;;
65896;SDS011;52677;50.898;10.854;2022-10-26T08:05:57;14.82;;;6.30;;
65896;SDS011;52677;50.898;10.854;2022-10-26T08:07:57;12.85;;;5.68;;
65896;SDS011;52677;50.898;10.854;2022-10-26T08:09:58;25.20;;;6.50;;
65896;SDS011;52677;50.898;10.854;2022-10-26T08:11:58;15.65;;;5.90;;
65896;SDS011;52677;50.898;10.854;2022-10-26T08:13:58;11.77;;;6.07;;
65896;SDS011;52677;50.898;10.854;2022-10-26T08:16:03;27.42;;;6.55;;
65896;SDS011;52677;50.898;10.854;2022-10-26T08:18:04;14.75;;;6.18;;
65896;SDS011;52677;50.898;10.854;2022-10-26T08:20:05;13.13;;;7.03;;
65896;SDS011;52677;50.898;10.854;2022-10-26T08:22:05;19.73;;;8.45;;
65896;SDS011;52677;50.898;10.854;2022-10-26T08:24:06;15.43;;;5.88;;
65896;SDS011;52677;50.898;10.854;2022-10-26T08:26:06;10.85;;;6.03;;
65896;SDS011;52677;50.898;10.854;2022-10-26T08:28:08;8.85;;;5.40;;
65896;SDS011;52677;50.898;10.854;2022-10-26T08:30:08;14.00;;;5.72;;
65896;SDS011;52677;50.898;10.854;2022-10-26T08:32:09;10.13;;;6.35;;
65896;SDS011;52677;50.898;10.854;2022-10-26T08:34:09;6.97;;;4.70;;
65896;SDS011;52677;50.898;10.854;2022-10-26T08:36:09;10.73;;;5.50;;
65896;SDS011;52677;50.898;10.854;2022-10-26T08:38:11;9.25;;;4.78;;
65896;SDS011;52677;50.898;10.854;2022-10-26T08:40:14;11.75;;;5.57;;
65896;SDS011;52677;50.898;10.854;2022-10-26T08:42:17;15.95;;;5.38;;
65896;SDS011;52677;50.898;10.854;2022-10-26T08:44:35;10.10;;;5.20;;
65896;SDS011;52677;50.898;10.854;2022-10-26T08:46:42;13.55;;;5.47;;
65896;SDS011;52677;50.898;10.854;2022-10-26T08:48:55;10.38;;;5.25;;
65896;SDS011;52677;50.898;10.854;2022-10-26T08:51:02;9.63;;;4.80;;
65896;SDS011;52677;50.898;10.854;2022-10-26T08:53:10;8.02;;;5.43;;
65896;SDS011;52677;50.898;10.854;2022-10-26T08:55:21;8.10;;;4.82;;
65896;SDS011;52677;50.898;10.854;2022-10-26T08:57:43;9.07;;;4.78;;
65896;SDS011;52677;50.898;10.854;2022-10-26T08:59:52;7.88;;;4.53;;
65896;SDS011;52677;50.898;10.854;2022-10-26T09:01:55;7.60;;;5.88;;
65896;SDS011;52677;50.898;10.854;2022-10-26T09:03:56;13.10;;;6.28;;
65896;SDS011;52677;50.898;10.854;2022-10-26T09:08:06;11.02;;;7.05;;
65896;SDS011;52677;50.898;10.854;2022-10-26T09:10:25;8.45;;;7.03;;
65896;SDS011;52677;50.898;10.854;2022-10-26T09:12:54;12.48;;;7.55;;
65896;SDS011;52677;50.898;10.854;2022-10-26T09:22:26;13.68;;;6.00;;
65896;SDS011;52677;50.898;10.854;2022-10-26T09:24:52;9.32;;;5.78;;
65896;SDS011;52677;50.898;10.854;2022-10-26T09:26:57;9.70;;;5.30;;
65896;SDS011;52677;50.898;10.854;2022-10-26T09:29:12;14.48;;;5.80;;
65896;SDS011;52677;50.898;10.854;2022-10-26T09:31:14;10.80;;;4.85;;
65896;SDS011;52677;50.898;10.854;2022-10-26T09:33:17;9.60;;;5.35;;
65896;SDS011;52677;50.898;10.854;2022-10-26T09:35:25;8.40;;;5.25;;
65896;SDS011;52677;50.898;10.854;2022-10-26T09:37:31;7.82;;;4.80;;
65896;SDS011;52677;50.898;10.854;2022-10-26T09:39:38;10.43;;;5.70;;
65896;SDS011;52677;50.898;10.854;2022-10-26T09:41:44;6.75;;;4.60;;
65896;SDS011;52677;50.898;10.854;2022-10-26T09:46:04;8.85;;;5.28;;
65896;SDS011;52677;50.898;10.854;2022-10-26T09:48:06;10.88;;;4.78;;
65896;SDS011;52677;50.898;10.854;2022-10-26T09:50:25;11.90;;;7.00;;
65896;SDS011;52677;50.898;10.854;2022-10-26T09:52:30;10.68;;;6.47;;
65896;SDS011;52677;50.898;10.854;2022-10-26T09:54:30;13.85;;;7.88;;
65896;SDS011;52677;50.898;10.854;2022-10-26T09:56:30;13.57;;;7.38;;
65896;SDS011;52677;50.898;10.854;2022-10-26T09:58:33;10.25;;;6.80;;
65896;SDS011;52677;50.898;10.854;2022-10-26T10:00:36;11.80;;;6.32;;
65896;SDS011;52677;50.898;10.854;2022-10-26T10:02:39;12.77;;;5.90;;
65896;SDS011;52677;50.898;10.854;2022-10-26T10:04:46;8.32;;;5.53;;
65896;SDS011;52677;50.898;10.854;2022-10-26T10:06:51;11.55;;;5.65;;
65896;SDS011;52677;50.898;10.854;2022-10-26T10:09:15;10.02;;;4.63;;
65896;SDS011;52677;50.898;10.854;2022-10-26T10:11:17;8.23;;;5.28;;
65896;SDS011;52677;50.898;10.854;2022-10-26T10:13:18;7.63;;;4.80;;
65896;SDS011;52677;50.898;10.854;2022-10-26T10:15:21;9.63;;;5.22;;
65896;SDS011;52677;50.898;10.854;2022-10-26T10:17:23;6.57;;;4.88;;
65896;SDS011;52677;50.898;10.854;2022-10-26T10:19:25;6.72;;;4.90;;
65896;SDS011;52677;50.898;10.854;2022-10-26T10:21:34;7.53;;;5.40;;
65896;SDS011;52677;50.898;10.854;2022-10-26T10:23:46;8.77;;;5.22;;
65896;SDS011;52677;50.898;10.854;2022-10-26T10:25:48;8.52;;;5.47;;
65896;SDS011;52677;50.898;10.854;2022-10-26T10:27:58;8.05;;;6.07;;
65896;SDS011;52677;50.898;10.854;2022-10-26T10:30:14;14.18;;;5.88;;
65896;SDS011;52677;50.898;10.854;2022-10-26T10:32:24;10.63;;;6.18;;
65896;SDS011;52677;50.898;10.854;2022-10-26T10:34:29;9.52;;;6.13;;
65896;SDS011;52677;50.898;10.854;2022-10-26T10:36:30;10.57;;;7.15;;
65896;SDS011;52677;50.898;10.854;2022-10-26T10:38:35;14.93;;;6.88;;
65896;SDS011;52677;50.898;10.854;2022-10-26T10:40:37;10.50;;;6.65;;
65896;SDS011;52677;50.898;10.854;2022-10-26T10:42:38;10.10;;;6.15;;
65896;SDS011;52677;50.898;10.854;2022-10-26T10:44:41;10.30;;;6.32;;
65896;SDS011;52677;50.898;10.854;2022-10-26T10:46:42;9.07;;;6.35;;
65896;SDS011;52677;50.898;10.854;2022-10-26T10:48:47;10.10;;;6.13;;
65896;SDS011;52677;50.898;10.854;2022-10-26T10:50:56;10.60;;;6.32;;
65896;SDS011;52677;50.898;10.854;2022-10-26T10:53:18;9.00;;;5.72;;
65896;SDS011;52677;50.898;10.854;2022-10-26T10:55:29;9.73;;;6.20;;
65896;SDS011;52677;50.898;10.854;2022-10-26T10:57:47;9.02;;;5.45;;
65896;SDS011;52677;50.898;10.854;2022-10-26T11:00:08;9.57;;;5.50;;
65896;SDS011;52677;50.898;10.854;2022-10-26T11:04:30;7.40;;;4.90;;
65896;SDS011;52677;50.898;10.854;2022-10-26T11:06:51;7.60;;;5.25;;
65896;SDS011;52677;50.898;10.854;2022-10-26T11:09:00;9.90;;;5.10;;
65896;SDS011;52677;50.898;10.854;2022-10-26T11:11:27;9.02;;;5.18;;
65896;SDS011;52677;50.898;10.854;2022-10-26T11:13:38;17.13;;;8.25;;
65896;SDS011;52677;50.898;10.854;2022-10-26T11:15:43;19.35;;;10.73;;
65896;SDS011;52677;50.898;10.854;2022-10-26T11:19:55;19.42;;;12.38;;
65896;SDS011;52677;50.898;10.854;2022-10-26T11:21:59;28.23;;;16.23;;
65896;SDS011;52677;50.898;10.854;2022-10-26T11:24:05;22.08;;;14.60;;
65896;SDS011;52677;50.898;10.854;2022-10-26T11:28:36;14.68;;;10.10;;
65896;SDS011;52677;50.898;10.854;2022-10-26T11:30:48;12.95;;;8.10;;
65896;SDS011;52677;50.898;10.854;2022-10-26T11:33:02;14.10;;;7.90;;
65896;SDS011;52677;50.898;10.854;2022-10-26T11:35:10;12.55;;;8.55;;
65896;SDS011;52677;50.898;10.854;2022-10-26T11:37:16;14.30;;;8.75;;
65896;SDS011;52677;50.898;10.854;2022-10-26T11:41:48;11.40;;;6.60;;
65896;SDS011;52677;50.898;10.854;2022-10-26T11:46:21;13.52;;;5.78;;
65896;SDS011;52677;50.898;10.854;2022-10-26T11:48:28;9.60;;;4.32;;
65896;SDS011;52677;50.898;10.854;2022-10-26T11:50:37;7.90;;;3.78;;
65896;SDS011;52677;50.898;10.854;2022-10-26T11:52:57;8.55;;;4.40;;
65896;SDS011;52677;50.898;10.854;2022-10-26T11:55:02;5.78;;;3.78;;
65896;SDS011;52677;50.898;10.854;2022-10-26T11:57:03;7.63;;;4.18;;
65896;SDS011;52677;50.898;10.854;2022-10-26T11:59:04;7.60;;;4.40;;
65896;SDS011;52677;50.898;10.854;2022-10-26T12:01:09;5.38;;;3.15;;
65896;SDS011;52677;50.898;10.854;2022-10-26T12:03:14;5.68;;;3.15;;
65896;SDS011;52677;50.898;10.854;2022-10-26T12:05:22;4.47;;;3.17;;
65896;SDS011;52677;50.898;10.854;2022-10-26T12:07:32;4.65;;;3.22;;
65896;SDS011;52677;50.898;10.854;2022-10-26T12:09:36;4.25;;;3.15;;
65896;SDS011;52677;50.898;10.854;2022-10-26T12:15:51;4.68;;;2.90;;
65896;SDS011;52677;50.898;10.854;2022-10-26T12:18:04;3.55;;;2.72;;
65896;SDS011;52677;50.898;10.854;2022-10-26T12:20:37;6.13;;;3.42;;
65896;SDS011;52677;50.898;10.854;2022-10-26T12:22:52;5.57;;;3.72;;
65896;SDS011;52677;50.898;10.854;2022-10-26T12:29:31;4.88;;;3.47;;
65896;SDS011;52677;50.898;10.854;2022-10-26T12:31:43;7.22;;;4.80;;
65896;SDS011;52677;50.898;10.854;2022-10-26T12:33:48;4.30;;;3.88;;
65896;SDS011;52677;50.898;10.854;2022-10-26T12:35:49;7.85;;;4.30;;
65896;SDS011;52677;50.898;10.854;2022-10-26T12:37:49;3.88;;;3.50;;
65896;SDS011;52677;50.898;10.854;2022-10-26T12:39:50;8.20;;;4.43;;
65896;SDS011;52677;50.898;10.854;2022-10-26T12:41:54;7.47;;;4.22;;
65896;SDS011;52677;50.898;10.854;2022-10-26T12:44:59;5.22;;;3.60;;
65896;SDS011;52677;50.898;10.854;2022-10-26T12:46:56;5.57;;;2.60;;
65896;SDS011;52677;50.898;10.854;2022-10-26T12:48:56;6.50;;;2.47;;
65896;SDS011;52677;50.898;10.854;2022-10-26T12:51:16;3.83;;;2.25;;
65896;SDS011;52677;50.898;10.854;2022-10-26T12:53:17;3.35;;;2.65;;
65896;SDS011;52677;50.898;10.854;2022-10-26T12:57:30;3.90;;;2.70;;
65896;SDS011;52677;50.898;10.854;2022-10-26T12:59:45;5.40;;;2.70;;
65896;SDS011;52677;50.898;10.854;2022-10-26T13:02:20;4.32;;;3.05;;
65896;SDS011;52677;50.898;10.854;2022-10-26T13:08:39;4.30;;;3.60;;
65896;SDS011;52677;50.898;10.854;2022-10-26T13:10:58;6.53;;;3.25;;
65896;SDS011;52677;50.898;10.854;2022-10-26T13:13:03;5.43;;;2.97;;
65896;SDS011;52677;50.898;10.854;2022-10-26T13:15:17;5.22;;;3.05;;
65896;SDS011;52677;50.898;10.854;2022-10-26T13:17:21;8.02;;;3.10;;
65896;SDS011;52677;50.898;10.854;2022-10-26T13:19:32;5.05;;;3.35;;
65896;SDS011;52677;50.898;10.854;2022-10-26T13:21:42;9.00;;;3.90;;
65896;SDS011;52677;50.898;10.854;2022-10-26T13:23:46;10.65;;;4.03;;
65896;SDS011;52677;50.898;10.854;2022-10-26T13:26:00;9.65;;;4.53;;
65896;SDS011;52677;50.898;10.854;2022-10-26T13:28:03;9.45;;;4.80;;
65896;SDS011;52677;50.898;10.854;2022-10-26T13:32:08;4.65;;;3.08;;
65896;SDS011;52677;50.898;10.854;2022-10-26T13:34:11;5.38;;;2.78;;
65896;SDS011;52677;50.898;10.854;2022-10-26T13:36:17;4.82;;;2.72;;